sensor_id;sensor_type;location;lat;lon;timestamp;pressure;altitude;pressure_sealevel;temperature;humidity
74921;BME280;63483;47.384;8.860;2024-01-06T00:01:46;93385.66;;;3.31;53.29
74921;BME280;63483;47.384;8.860;2024-01-06T00:04:11;93389.88;;;3.32;53.19
74921;BME280;63483;47.384;8.860;2024-01-06T00:06:36;93388.94;;;3.33;53.01
74921;BME280;63483;47.384;8.860;2024-01-06T00:09:02;93395.06;;;3.32;53.11
74921;BME280;63483;47.384;8.860;2024-01-06T00:11:29;93392.47;;;3.32;52.84
74921;BME280;63483;47.384;8.860;2024-01-06T00:13:54;93396.84;;;3.32;52.85
74921;BME280;63483;47.384;8.860;2024-01-06T00:16:20;93389.88;;;3.32;52.84
74921;BME280;63483;47.384;8.860;2024-01-06T00:18:46;93396.00;;;3.31;52.68
74921;BME280;63483;47.384;8.860;2024-01-06T00:21:11;93394.56;;;3.29;52.54
74921;BME280;63483;47.384;8.860;2024-01-06T00:23:36;93397.16;;;3.29;52.43
74921;BME280;63483;47.384;8.860;2024-01-06T00:26:03;93403.47;;;3.26;52.63
74921;BME280;63483;47.384;8.860;2024-01-06T00:28:28;93402.19;;;3.22;52.66
74921;BME280;63483;47.384;8.860;2024-01-06T00:30:53;93402.34;;;3.20;52.47
74921;BME280;63483;47.384;8.860;2024-01-06T00:33:19;93408.03;;;3.16;52.57
74921;BME280;63483;47.384;8.860;2024-01-06T00:35:44;93415.13;;;3.14;52.64
74921;BME280;63483;47.384;8.860;2024-01-06T00:38:09;93411.09;;;3.11;52.45
74921;BME280;63483;47.384;8.860;2024-01-06T00:40:34;93416.28;;;3.11;52.62
74921;BME280;63483;47.384;8.860;2024-01-06T00:43:00;93409.00;;;3.07;52.32
74921;BME280;63483;47.384;8.860;2024-01-06T00:45:25;93416.44;;;3.01;52.81
74921;BME280;63483;47.384;8.860;2024-01-06T00:47:50;93419.34;;;2.98;52.31
74921;BME280;63483;47.384;8.860;2024-01-06T00:50:17;93412.72;;;2.96;52.38
74921;BME280;63483;47.384;8.860;2024-01-06T00:52:44;93413.22;;;2.99;52.70
74921;BME280;63483;47.384;8.860;2024-01-06T00:55:09;93425.81;;;3.02;52.32
74921;BME280;63483;47.384;8.860;2024-01-06T00:57:35;93424.84;;;3.03;52.21
74921;BME280;63483;47.384;8.860;2024-01-06T01:00:00;93427.59;;;3.02;52.20
74921;BME280;63483;47.384;8.860;2024-01-06T01:02:25;93427.75;;;3.00;51.75
74921;BME280;63483;47.384;8.860;2024-01-06T01:04:51;93426.31;;;2.98;51.77
74921;BME280;63483;47.384;8.860;2024-01-06T01:07:17;93432.94;;;2.92;51.76
74921;BME280;63483;47.384;8.860;2024-01-06T01:09:43;93441.34;;;2.86;51.89
74921;BME280;63483;47.384;8.860;2024-01-06T01:12:08;93443.59;;;2.81;51.58
74921;BME280;63483;47.384;8.860;2024-01-06T01:14:33;93444.88;;;2.77;51.91
74921;BME280;63483;47.384;8.860;2024-01-06T01:16:59;93444.09;;;2.76;51.84
74921;BME280;63483;47.384;8.860;2024-01-06T01:19:24;93452.81;;;2.75;51.16
74921;BME280;63483;47.384;8.860;2024-01-06T01:21:49;93457.34;;;2.73;51.22
74921;BME280;63483;47.384;8.860;2024-01-06T01:24:14;93461.38;;;2.67;51.19
74921;BME280;63483;47.384;8.860;2024-01-06T01:26:40;93464.59;;;2.70;51.27
74921;BME280;63483;47.384;8.860;2024-01-06T01:29:05;93469.63;;;2.71;51.41
74921;BME280;63483;47.384;8.860;2024-01-06T01:31:30;93477.84;;;2.66;50.23
74921;BME280;63483;47.384;8.860;2024-01-06T01:33:56;93480.75;;;2.63;50.90
74921;BME280;63483;47.384;8.860;2024-01-06T01:36:21;93476.50;;;2.38;50.89
74921;BME280;63483;47.384;8.860;2024-01-06T01:38:46;93478.19;;;1.70;46.67
74921;BME280;63483;47.384;8.860;2024-01-06T01:41:12;93485.25;;;1.15;46.87
74921;BME280;63483;47.384;8.860;2024-01-06T01:43:37;93491.78;;;0.83;47.31
74921;BME280;63483;47.384;8.860;2024-01-06T01:46:03;93498.50;;;0.58;47.10
74921;BME280;63483;47.384;8.860;2024-01-06T01:48:29;93497.13;;;0.36;47.53
74921;BME280;63483;47.384;8.860;2024-01-06T01:50:54;93493.81;;;0.26;47.07
74921;BME280;63483;47.384;8.860;2024-01-06T01:53:20;93498.13;;;0.25;47.19
74921;BME280;63483;47.384;8.860;2024-01-06T01:55:46;93488.53;;;0.45;50.16
74921;BME280;63483;47.384;8.860;2024-01-06T01:58:13;93491.16;;;0.53;56.39
74921;BME280;63483;47.384;8.860;2024-01-06T02:00:39;93492.69;;;0.28;50.09
74921;BME280;63483;47.384;8.860;2024-01-06T02:03:05;93494.63;;;-0.02;49.62
74921;BME280;63483;47.384;8.860;2024-01-06T02:05:30;93489.69;;;-0.13;49.37
74921;BME280;63483;47.384;8.860;2024-01-06T02:07:56;93484.06;;;-0.36;48.73
74921;BME280;63483;47.384;8.860;2024-01-06T02:10:21;93495.22;;;-0.45;48.49
74921;BME280;63483;47.384;8.860;2024-01-06T02:12:48;93492.72;;;-0.37;49.26
74921;BME280;63483;47.384;8.860;2024-01-06T02:15:13;93487.34;;;-0.44;48.69
74921;BME280;63483;47.384;8.860;2024-01-06T02:17:39;93481.16;;;-0.51;47.85
74921;BME280;63483;47.384;8.860;2024-01-06T02:20:06;93494.66;;;-0.49;48.03
74921;BME280;63483;47.384;8.860;2024-01-06T02:22:34;93488.97;;;-0.43;48.12
74921;BME280;63483;47.384;8.860;2024-01-06T02:24:59;93496.22;;;-0.66;45.94
74921;BME280;63483;47.384;8.860;2024-01-06T02:27:25;93502.03;;;-0.64;46.35
74921;BME280;63483;47.384;8.860;2024-01-06T02:29:50;93503.66;;;-0.63;45.11
74921;BME280;63483;47.384;8.860;2024-01-06T02:32:15;93507.06;;;-0.72;43.40
74921;BME280;63483;47.384;8.860;2024-01-06T02:34:41;93499.16;;;-0.61;42.33
74921;BME280;63483;47.384;8.860;2024-01-06T02:37:06;93496.72;;;-0.53;43.11
74921;BME280;63483;47.384;8.860;2024-01-06T02:39:31;93494.81;;;-0.51;44.58
74921;BME280;63483;47.384;8.860;2024-01-06T02:41:57;93498.16;;;-0.40;43.02
74921;BME280;63483;47.384;8.860;2024-01-06T02:44:22;93505.81;;;-0.21;46.43
74921;BME280;63483;47.384;8.860;2024-01-06T02:46:47;93516.69;;;0.01;48.51
74921;BME280;63483;47.384;8.860;2024-01-06T02:49:12;93516.59;;;0.20;49.44
74921;BME280;63483;47.384;8.860;2024-01-06T02:51:38;93517.59;;;0.37;51.57
74921;BME280;63483;47.384;8.860;2024-01-06T02:54:03;93518.88;;;0.51;51.98
74921;BME280;63483;47.384;8.860;2024-01-06T02:56:29;93523.38;;;0.67;51.62
74921;BME280;63483;47.384;8.860;2024-01-06T02:58:54;93518.66;;;0.81;51.53
74921;BME280;63483;47.384;8.860;2024-01-06T03:01:20;93521.81;;;0.93;51.36
74921;BME280;63483;47.384;8.860;2024-01-06T03:03:45;93508.72;;;1.04;52.09
74921;BME280;63483;47.384;8.860;2024-01-06T03:06:10;93522.47;;;1.13;52.25
74921;BME280;63483;47.384;8.860;2024-01-06T03:08:36;93522.69;;;1.19;51.58
74921;BME280;63483;47.384;8.860;2024-01-06T03:11:02;93515.81;;;1.28;51.55
74921;BME280;63483;47.384;8.860;2024-01-06T03:13:29;93520.88;;;1.38;51.59
74921;BME280;63483;47.384;8.860;2024-01-06T03:15:54;93521.16;;;1.35;51.79
74921;BME280;63483;47.384;8.860;2024-01-06T03:18:19;93520.88;;;1.38;51.81
74921;BME280;63483;47.384;8.860;2024-01-06T03:20:44;93521.91;;;1.45;52.04
74921;BME280;63483;47.384;8.860;2024-01-06T03:23:10;93518.09;;;1.49;51.50
74921;BME280;63483;47.384;8.860;2024-01-06T03:25:35;93515.88;;;1.54;51.72
74921;BME280;63483;47.384;8.860;2024-01-06T03:28:00;93523.47;;;1.56;51.67
74921;BME280;63483;47.384;8.860;2024-01-06T03:30:26;93522.16;;;1.60;51.75
74921;BME280;63483;47.384;8.860;2024-01-06T03:32:51;93519.44;;;1.61;51.48
74921;BME280;63483;47.384;8.860;2024-01-06T03:35:16;93529.75;;;1.61;51.81
74921;BME280;63483;47.384;8.860;2024-01-06T03:37:43;93526.53;;;1.59;51.80
74921;BME280;63483;47.384;8.860;2024-01-06T03:40:08;93519.75;;;1.58;51.33
74921;BME280;63483;47.384;8.860;2024-01-06T03:42:34;93523.66;;;1.63;51.62
74921;BME280;63483;47.384;8.860;2024-01-06T03:44:59;93523.34;;;1.66;51.30
74921;BME280;63483;47.384;8.860;2024-01-06T03:47:24;93535.44;;;1.65;51.47
74921;BME280;63483;47.384;8.860;2024-01-06T03:49:50;93535.00;;;1.70;51.39
74921;BME280;63483;47.384;8.860;2024-01-06T03:52:15;93531.31;;;1.72;51.70
74921;BME280;63483;47.384;8.860;2024-01-06T03:54:40;93541.31;;;1.75;51.29
74921;BME280;63483;47.384;8.860;2024-01-06T03:57:06;93532.47;;;1.78;51.45
74921;BME280;63483;47.384;8.860;2024-01-06T03:59:31;93532.78;;;1.75;50.98
74921;BME280;63483;47.384;8.860;2024-01-06T04:01:56;93533.72;;;1.74;51.23
74921;BME280;63483;47.384;8.860;2024-01-06T04:04:22;93541.97;;;1.77;51.46
74921;BME280;63483;47.384;8.860;2024-01-06T04:06:47;93544.41;;;1.79;51.18
74921;BME280;63483;47.384;8.860;2024-01-06T04:09:12;93549.25;;;1.82;51.43
74921;BME280;63483;47.384;8.860;2024-01-06T04:11:38;93545.72;;;1.83;51.17
74921;BME280;63483;47.384;8.860;2024-01-06T04:14:03;93553.63;;;1.82;51.27
74921;BME280;63483;47.384;8.860;2024-01-06T04:16:28;93555.09;;;1.84;51.48
74921;BME280;63483;47.384;8.860;2024-01-06T04:18:54;93553.16;;;1.86;51.20
74921;BME280;63483;47.384;8.860;2024-01-06T04:21:19;93557.38;;;1.87;51.22
74921;BME280;63483;47.384;8.860;2024-01-06T04:23:44;93558.16;;;1.88;51.11
74921;BME280;63483;47.384;8.860;2024-01-06T04:26:10;93554.94;;;1.86;50.94
74921;BME280;63483;47.384;8.860;2024-01-06T04:28:35;93562.00;;;1.84;51.33
74921;BME280;63483;47.384;8.860;2024-01-06T04:31:00;93568.50;;;1.88;51.21
74921;BME280;63483;47.384;8.860;2024-01-06T04:33:26;93566.06;;;1.86;51.01
74921;BME280;63483;47.384;8.860;2024-01-06T04:35:51;93556.56;;;1.87;50.88
74921;BME280;63483;47.384;8.860;2024-01-06T04:38:16;93555.44;;;1.89;51.02
74921;BME280;63483;47.384;8.860;2024-01-06T04:40:42;93568.19;;;1.91;51.06
74921;BME280;63483;47.384;8.860;2024-01-06T04:43:08;93557.22;;;1.89;51.29
74921;BME280;63483;47.384;8.860;2024-01-06T04:45:33;93566.44;;;1.91;51.04
74921;BME280;63483;47.384;8.860;2024-01-06T04:47:58;93571.22;;;1.86;50.48
74921;BME280;63483;47.384;8.860;2024-01-06T04:50:24;93572.06;;;1.87;50.75
74921;BME280;63483;47.384;8.860;2024-01-06T04:52:49;93577.06;;;1.88;50.65
74921;BME280;63483;47.384;8.860;2024-01-06T04:55:14;93571.22;;;1.86;50.90
74921;BME280;63483;47.384;8.860;2024-01-06T04:57:41;93576.59;;;1.67;46.25
74921;BME280;63483;47.384;8.860;2024-01-06T05:00:06;93575.47;;;1.07;39.29
74921;BME280;63483;47.384;8.860;2024-01-06T05:02:32;93574.84;;;0.77;44.52
74921;BME280;63483;47.384;8.860;2024-01-06T05:04:58;93582.00;;;0.83;47.78
74921;BME280;63483;47.384;8.860;2024-01-06T05:07:23;93569.28;;;1.00;49.65
74921;BME280;63483;47.384;8.860;2024-01-06T05:09:48;93586.44;;;0.45;51.43
74921;BME280;63483;47.384;8.860;2024-01-06T05:12:14;93580.53;;;-0.03;47.08
74921;BME280;63483;47.384;8.860;2024-01-06T05:14:39;93583.50;;;-0.45;47.57
74921;BME280;63483;47.384;8.860;2024-01-06T05:17:04;93588.28;;;-0.79;47.93
74921;BME280;63483;47.384;8.860;2024-01-06T05:19:30;93595.41;;;-1.12;47.49
74921;BME280;63483;47.384;8.860;2024-01-06T05:21:56;93597.53;;;-1.37;47.80
74921;BME280;63483;47.384;8.860;2024-01-06T05:24:22;93595.09;;;-1.29;48.08
74921;BME280;63483;47.384;8.860;2024-01-06T05:26:47;93599.41;;;-1.39;48.30
74921;BME280;63483;47.384;8.860;2024-01-06T05:29:13;93600.84;;;-1.56;46.26
74921;BME280;63483;47.384;8.860;2024-01-06T05:31:38;93597.75;;;-1.60;46.53
74921;BME280;63483;47.384;8.860;2024-01-06T05:34:03;93596.06;;;-1.70;45.27
74921;BME280;63483;47.384;8.860;2024-01-06T05:36:29;93590.50;;;-1.85;46.02
74921;BME280;63483;47.384;8.860;2024-01-06T05:38:55;93600.09;;;-1.87;45.68
74921;BME280;63483;47.384;8.860;2024-01-06T05:41:20;93597.09;;;-1.93;44.92
74921;BME280;63483;47.384;8.860;2024-01-06T05:43:45;93602.22;;;-1.93;44.78
74921;BME280;63483;47.384;8.860;2024-01-06T05:46:11;93610.38;;;-1.78;44.76
74921;BME280;63483;47.384;8.860;2024-01-06T05:48:36;93607.69;;;-1.76;43.20
74921;BME280;63483;47.384;8.860;2024-01-06T05:51:04;93601.53;;;-1.64;43.43
74921;BME280;63483;47.384;8.860;2024-01-06T05:53:30;93611.16;;;-1.46;44.72
74921;BME280;63483;47.384;8.860;2024-01-06T05:55:56;93622.72;;;-1.11;49.49
74921;BME280;63483;47.384;8.860;2024-01-06T05:58:21;93629.69;;;-0.82;48.38
74921;BME280;63483;47.384;8.860;2024-01-06T06:00:47;93631.69;;;-0.57;50.37
74921;BME280;63483;47.384;8.860;2024-01-06T06:03:12;93627.88;;;-0.33;50.36
74921;BME280;63483;47.384;8.860;2024-01-06T06:05:37;93625.47;;;-0.83;53.79
74921;BME280;63483;47.384;8.860;2024-01-06T06:08:03;93620.47;;;-1.45;49.35
74921;BME280;63483;47.384;8.860;2024-01-06T06:10:28;93624.06;;;-1.98;49.03
74921;BME280;63483;47.384;8.860;2024-01-06T06:13:05;93622.31;;;-2.29;48.85
74921;BME280;63483;47.384;8.860;2024-01-06T06:15:31;93626.22;;;-2.46;49.17
74921;BME280;63483;47.384;8.860;2024-01-06T06:17:57;93630.56;;;-2.46;50.07
74921;BME280;63483;47.384;8.860;2024-01-06T06:20:25;93627.19;;;-2.26;51.38
74921;BME280;63483;47.384;8.860;2024-01-06T06:22:51;93638.56;;;-2.18;49.63
74921;BME280;63483;47.384;8.860;2024-01-06T06:25:16;93641.19;;;-2.30;47.79
74921;BME280;63483;47.384;8.860;2024-01-06T06:27:41;93632.81;;;-2.32;47.77
74921;BME280;63483;47.384;8.860;2024-01-06T06:30:07;93627.31;;;-2.48;47.05
74921;BME280;63483;47.384;8.860;2024-01-06T06:32:33;93625.94;;;-2.52;47.69
74921;BME280;63483;47.384;8.860;2024-01-06T06:34:58;93632.44;;;-2.48;48.04
74921;BME280;63483;47.384;8.860;2024-01-06T06:37:24;93628.44;;;-2.41;47.25
74921;BME280;63483;47.384;8.860;2024-01-06T06:39:49;93634.38;;;-2.40;46.43
74921;BME280;63483;47.384;8.860;2024-01-06T06:42:14;93634.00;;;-2.36;44.68
74921;BME280;63483;47.384;8.860;2024-01-06T06:44:39;93631.25;;;-2.23;44.24
74921;BME280;63483;47.384;8.860;2024-01-06T06:47:05;93630.19;;;-2.20;45.08
74921;BME280;63483;47.384;8.860;2024-01-06T06:49:30;93627.69;;;-2.32;44.08
74921;BME280;63483;47.384;8.860;2024-01-06T06:51:55;93638.25;;;-2.04;44.54
74921;BME280;63483;47.384;8.860;2024-01-06T06:54:21;93630.97;;;-1.68;48.74
74921;BME280;63483;47.384;8.860;2024-01-06T06:56:46;93646.19;;;-1.35;50.83
74921;BME280;63483;47.384;8.860;2024-01-06T06:59:12;93653.00;;;-1.05;51.73
74921;BME280;63483;47.384;8.860;2024-01-06T07:01:37;93652.13;;;-0.85;52.22
74921;BME280;63483;47.384;8.860;2024-01-06T07:04:02;93660.81;;;-0.66;51.70
74921;BME280;63483;47.384;8.860;2024-01-06T07:06:29;93655.78;;;-0.48;52.87
74921;BME280;63483;47.384;8.860;2024-01-06T07:08:55;93657.41;;;-0.76;55.06
74921;BME280;63483;47.384;8.860;2024-01-06T07:11:20;93653.47;;;-1.41;50.67
74921;BME280;63483;47.384;8.860;2024-01-06T07:13:46;93654.38;;;-1.92;49.74
74921;BME280;63483;47.384;8.860;2024-01-06T07:16:11;93665.22;;;-2.31;49.95
74921;BME280;63483;47.384;8.860;2024-01-06T07:18:39;93661.75;;;-2.62;49.75
74921;BME280;63483;47.384;8.860;2024-01-06T07:21:05;93657.53;;;-2.84;50.21
74921;BME280;63483;47.384;8.860;2024-01-06T07:23:32;93662.47;;;-2.92;50.59
74921;BME280;63483;47.384;8.860;2024-01-06T07:25:57;93661.53;;;-2.91;50.95
74921;BME280;63483;47.384;8.860;2024-01-06T07:28:23;93673.38;;;-2.90;49.77
74921;BME280;63483;47.384;8.860;2024-01-06T07:30:48;93674.69;;;-2.96;49.47
74921;BME280;63483;47.384;8.860;2024-01-06T07:33:13;93676.44;;;-2.97;48.87
74921;BME280;63483;47.384;8.860;2024-01-06T07:35:39;93674.44;;;-2.93;48.31
74921;BME280;63483;47.384;8.860;2024-01-06T07:38:11;93683.88;;;-2.93;48.38
74921;BME280;63483;47.384;8.860;2024-01-06T07:40:36;93685.84;;;-2.86;48.03
74921;BME280;63483;47.384;8.860;2024-01-06T07:43:02;93683.16;;;-2.84;47.33
74921;BME280;63483;47.384;8.860;2024-01-06T07:45:27;93686.75;;;-2.75;46.44
74921;BME280;63483;47.384;8.860;2024-01-06T07:47:53;93699.16;;;-2.60;45.26
74921;BME280;63483;47.384;8.860;2024-01-06T07:50:18;93690.03;;;-2.52;45.57
74921;BME280;63483;47.384;8.860;2024-01-06T07:52:43;93690.25;;;-2.44;45.66
74921;BME280;63483;47.384;8.860;2024-01-06T07:55:09;93697.25;;;-2.04;50.49
74921;BME280;63483;47.384;8.860;2024-01-06T07:57:34;93696.78;;;-1.67;51.71
74921;BME280;63483;47.384;8.860;2024-01-06T07:59:59;93702.00;;;-1.38;52.28
74921;BME280;63483;47.384;8.860;2024-01-06T08:02:25;93702.50;;;-1.13;52.50
74921;BME280;63483;47.384;8.860;2024-01-06T08:04:51;93699.88;;;-0.92;53.61
74921;BME280;63483;47.384;8.860;2024-01-06T08:07:16;93705.06;;;-0.72;53.18
74921;BME280;63483;47.384;8.860;2024-01-06T08:09:41;93697.72;;;-0.96;58.45
74921;BME280;63483;47.384;8.860;2024-01-06T08:12:07;93694.13;;;-1.56;53.06
74921;BME280;63483;47.384;8.860;2024-01-06T08:14:33;93693.75;;;-2.03;50.67
74921;BME280;63483;47.384;8.860;2024-01-06T08:16:58;93692.44;;;-2.39;51.57
74921;BME280;63483;47.384;8.860;2024-01-06T08:19:23;93702.94;;;-2.75;51.52
74921;BME280;63483;47.384;8.860;2024-01-06T08:21:49;93700.91;;;-2.92;51.67
74921;BME280;63483;47.384;8.860;2024-01-06T08:24:14;93700.56;;;-2.99;52.21
74921;BME280;63483;47.384;8.860;2024-01-06T08:26:40;93703.22;;;-3.01;51.36
74921;BME280;63483;47.384;8.860;2024-01-06T08:29:05;93696.13;;;-2.97;50.79
74921;BME280;63483;47.384;8.860;2024-01-06T08:31:30;93704.84;;;-2.88;50.54
74921;BME280;63483;47.384;8.860;2024-01-06T08:33:55;93705.69;;;-2.99;50.30
74921;BME280;63483;47.384;8.860;2024-01-06T08:36:21;93709.31;;;-3.02;50.44
74921;BME280;63483;47.384;8.860;2024-01-06T08:38:47;93710.25;;;-3.03;50.08
74921;BME280;63483;47.384;8.860;2024-01-06T08:41:12;93711.63;;;-2.99;49.70
74921;BME280;63483;47.384;8.860;2024-01-06T08:43:37;93713.00;;;-2.95;48.92
74921;BME280;63483;47.384;8.860;2024-01-06T08:46:03;93722.56;;;-2.85;48.13
74921;BME280;63483;47.384;8.860;2024-01-06T08:48:28;93719.94;;;-2.74;48.59
74921;BME280;63483;47.384;8.860;2024-01-06T08:50:53;93729.66;;;-2.45;49.98
74921;BME280;63483;47.384;8.860;2024-01-06T08:53:19;93722.56;;;-2.20;48.92
74921;BME280;63483;47.384;8.860;2024-01-06T08:55:44;93723.19;;;-2.07;48.92
74921;BME280;63483;47.384;8.860;2024-01-06T08:58:09;93725.59;;;-1.84;49.53
74921;BME280;63483;47.384;8.860;2024-01-06T09:00:35;93725.63;;;-1.53;51.82
74921;BME280;63483;47.384;8.860;2024-01-06T09:03:00;93728.44;;;-1.26;52.88
74921;BME280;63483;47.384;8.860;2024-01-06T09:05:25;93730.59;;;-1.00;53.67
74921;BME280;63483;47.384;8.860;2024-01-06T09:07:51;93735.63;;;-0.79;53.90
74921;BME280;63483;47.384;8.860;2024-01-06T09:10:19;93739.06;;;-0.59;54.44
74921;BME280;63483;47.384;8.860;2024-01-06T09:12:44;93743.56;;;-0.41;54.82
74921;BME280;63483;47.384;8.860;2024-01-06T09:15:10;93744.75;;;-0.26;54.54
74921;BME280;63483;47.384;8.860;2024-01-06T09:17:35;93751.13;;;-0.10;54.31
74921;BME280;63483;47.384;8.860;2024-01-06T09:20:01;93745.69;;;0.02;54.39
74921;BME280;63483;47.384;8.860;2024-01-06T09:22:27;93747.31;;;0.13;54.19
74921;BME280;63483;47.384;8.860;2024-01-06T09:24:54;93750.53;;;0.25;53.72
74921;BME280;63483;47.384;8.860;2024-01-06T09:27:19;93744.72;;;0.33;53.72
74921;BME280;63483;47.384;8.860;2024-01-06T09:29:45;93749.97;;;0.41;54.16
74921;BME280;63483;47.384;8.860;2024-01-06T09:32:10;93756.19;;;0.48;53.60
74921;BME280;63483;47.384;8.860;2024-01-06T09:34:36;93755.63;;;0.54;54.26
74921;BME280;63483;47.384;8.860;2024-01-06T09:37:02;93749.91;;;0.61;54.02
74921;BME280;63483;47.384;8.860;2024-01-06T09:39:27;93756.13;;;0.68;54.23
74921;BME280;63483;47.384;8.860;2024-01-06T09:41:53;93747.81;;;0.74;53.68
74921;BME280;63483;47.384;8.860;2024-01-06T09:44:18;93757.59;;;0.80;53.25
74921;BME280;63483;47.384;8.860;2024-01-06T09:46:44;93754.44;;;0.86;54.06
74921;BME280;63483;47.384;8.860;2024-01-06T09:49:10;93750.63;;;0.90;53.83
74921;BME280;63483;47.384;8.860;2024-01-06T09:51:36;93751.97;;;0.95;54.03
74921;BME280;63483;47.384;8.860;2024-01-06T09:54:08;93753.31;;;0.99;53.76
74921;BME280;63483;47.384;8.860;2024-01-06T09:56:34;93744.34;;;1.03;53.44
74921;BME280;63483;47.384;8.860;2024-01-06T09:59:00;93749.50;;;1.03;53.30
74921;BME280;63483;47.384;8.860;2024-01-06T10:01:25;93745.28;;;1.02;53.80
74921;BME280;63483;47.384;8.860;2024-01-06T10:03:50;93747.56;;;1.05;53.49
74921;BME280;63483;47.384;8.860;2024-01-06T10:06:17;93737.78;;;1.08;53.98
74921;BME280;63483;47.384;8.860;2024-01-06T10:08:52;93741.84;;;1.11;53.39
74921;BME280;63483;47.384;8.860;2024-01-06T10:11:19;93744.66;;;1.18;53.46
74921;BME280;63483;47.384;8.860;2024-01-06T10:13:48;93744.22;;;1.22;52.97
74921;BME280;63483;47.384;8.860;2024-01-06T10:16:13;93735.25;;;1.26;53.24
74921;BME280;63483;47.384;8.860;2024-01-06T10:18:39;93741.47;;;1.34;53.34
74921;BME280;63483;47.384;8.860;2024-01-06T10:21:05;93744.69;;;1.36;53.45
74921;BME280;63483;47.384;8.860;2024-01-06T10:23:32;93742.75;;;1.38;53.63
74921;BME280;63483;47.384;8.860;2024-01-06T10:25:57;93751.19;;;1.40;53.23
74921;BME280;63483;47.384;8.860;2024-01-06T10:28:23;93743.31;;;1.41;53.80
74921;BME280;63483;47.384;8.860;2024-01-06T10:30:52;93741.25;;;1.45;53.50
74921;BME280;63483;47.384;8.860;2024-01-06T10:33:19;93735.94;;;1.47;52.89
74921;BME280;63483;47.384;8.860;2024-01-06T10:35:45;93743.56;;;0.93;52.58
74921;BME280;63483;47.384;8.860;2024-01-06T10:38:11;93737.78;;;0.33;50.67
74921;BME280;63483;47.384;8.860;2024-01-06T10:40:36;93743.41;;;-0.20;49.36
74921;BME280;63483;47.384;8.860;2024-01-06T10:43:03;93741.63;;;-0.59;49.52
74921;BME280;63483;47.384;8.860;2024-01-06T10:45:28;93734.25;;;-0.93;49.42
74921;BME280;63483;47.384;8.860;2024-01-06T10:47:55;93735.63;;;-0.89;51.97
74921;BME280;63483;47.384;8.860;2024-01-06T10:50:21;93732.88;;;-0.97;50.07
74921;BME280;63483;47.384;8.860;2024-01-06T10:52:47;93730.72;;;-0.92;53.31
74921;BME280;63483;47.384;8.860;2024-01-06T10:55:15;93732.41;;;-1.12;49.76
74921;BME280;63483;47.384;8.860;2024-01-06T10:57:43;93726.69;;;-1.25;48.95
74921;BME280;63483;47.384;8.860;2024-01-06T11:00:08;93726.38;;;-1.01;50.74
74921;BME280;63483;47.384;8.860;2024-01-06T11:02:35;93731.28;;;-0.78;50.30
74921;BME280;63483;47.384;8.860;2024-01-06T11:05:01;93730.22;;;-0.86;47.18
74921;BME280;63483;47.384;8.860;2024-01-06T11:07:27;93728.94;;;-1.01;46.17
74921;BME280;63483;47.384;8.860;2024-01-06T11:09:57;93734.78;;;-0.99;48.11
74921;BME280;63483;47.384;8.860;2024-01-06T11:12:23;93733.56;;;-0.95;45.26
74921;BME280;63483;47.384;8.860;2024-01-06T11:14:51;93733.63;;;-0.75;46.94
74921;BME280;63483;47.384;8.860;2024-01-06T11:20:21;93727.84;;;-0.38;50.56
74921;BME280;63483;47.384;8.860;2024-01-06T11:22:47;93729.06;;;-0.13;52.05
74921;BME280;63483;47.384;8.860;2024-01-06T11:25:18;93728.88;;;0.08;52.77
74921;BME280;63483;47.384;8.860;2024-01-06T11:27:46;93731.28;;;0.29;53.53
74921;BME280;63483;47.384;8.860;2024-01-06T11:30:22;93727.06;;;0.48;53.55
74921;BME280;63483;47.384;8.860;2024-01-06T11:32:48;93729.28;;;0.61;53.27
74921;BME280;63483;47.384;8.860;2024-01-06T11:35:17;93718.00;;;0.71;52.80
74921;BME280;63483;47.384;8.860;2024-01-06T11:42:47;93724.28;;;-0.67;50.21
74921;BME280;63483;47.384;8.860;2024-01-06T11:45:13;93711.16;;;-1.24;50.13
74921;BME280;63483;47.384;8.860;2024-01-06T11:47:39;93712.53;;;-1.50;51.81
74921;BME280;63483;47.384;8.860;2024-01-06T11:50:05;93720.84;;;-1.37;52.86
74921;BME280;63483;47.384;8.860;2024-01-06T11:52:32;93716.06;;;-1.11;52.73
74921;BME280;63483;47.384;8.860;2024-01-06T11:54:58;93704.47;;;-0.95;51.92
74921;BME280;63483;47.384;8.860;2024-01-06T11:57:25;93706.16;;;-0.55;53.60
74921;BME280;63483;47.384;8.860;2024-01-06T11:59:51;93699.13;;;-0.53;50.00
74921;BME280;63483;47.384;8.860;2024-01-06T12:02:18;93692.06;;;-0.61;51.15
74921;BME280;63483;47.384;8.860;2024-01-06T12:04:50;93704.09;;;-0.71;49.26
74921;BME280;63483;47.384;8.860;2024-01-06T12:07:16;93698.97;;;-0.61;48.28
74921;BME280;63483;47.384;8.860;2024-01-06T12:09:42;93703.19;;;-0.51;51.26
74921;BME280;63483;47.384;8.860;2024-01-06T12:12:07;93693.41;;;-0.18;53.10
74921;BME280;63483;47.384;8.860;2024-01-06T12:14:34;93686.91;;;0.08;52.56
74921;BME280;63483;47.384;8.860;2024-01-06T12:17:00;93688.19;;;0.21;48.97
74921;BME280;63483;47.384;8.860;2024-01-06T12:19:30;93695.22;;;0.29;52.21
74921;BME280;63483;47.384;8.860;2024-01-06T12:21:56;93693.56;;;0.38;54.84
74921;BME280;63483;47.384;8.860;2024-01-06T12:24:21;93694.63;;;0.55;54.99
74921;BME280;63483;47.384;8.860;2024-01-06T12:26:47;93690.75;;;0.69;54.48
74921;BME280;63483;47.384;8.860;2024-01-06T12:29:13;93687.59;;;0.75;54.28
74921;BME280;63483;47.384;8.860;2024-01-06T12:31:39;93686.59;;;0.86;54.12
74921;BME280;63483;47.384;8.860;2024-01-06T12:34:05;93678.97;;;0.94;54.36
74921;BME280;63483;47.384;8.860;2024-01-06T12:36:34;93683.53;;;1.00;53.64
74921;BME280;63483;47.384;8.860;2024-01-06T12:38:59;93687.00;;;1.09;54.25
74921;BME280;63483;47.384;8.860;2024-01-06T12:41:25;93685.09;;;1.11;53.92
74921;BME280;63483;47.384;8.860;2024-01-06T12:43:50;93684.25;;;1.20;53.35
74921;BME280;63483;47.384;8.860;2024-01-06T12:46:16;93690.34;;;1.19;53.76
74921;BME280;63483;47.384;8.860;2024-01-06T12:48:41;93690.19;;;1.21;53.17
74921;BME280;63483;47.384;8.860;2024-01-06T12:51:07;93689.53;;;1.19;53.62
74921;BME280;63483;47.384;8.860;2024-01-06T12:53:32;93685.91;;;1.12;53.41
74921;BME280;63483;47.384;8.860;2024-01-06T12:55:57;93686.97;;;1.19;53.39
74921;BME280;63483;47.384;8.860;2024-01-06T12:58:22;93686.69;;;1.22;53.38
74921;BME280;63483;47.384;8.860;2024-01-06T13:00:49;93679.94;;;1.11;53.43
74921;BME280;63483;47.384;8.860;2024-01-06T13:03:14;93687.13;;;1.17;53.25
74921;BME280;63483;47.384;8.860;2024-01-06T13:05:39;93691.84;;;1.22;53.24